Avoca, Michigan
Current Conditions -  °F | °C
As of 6:57 AM on Sunday 21 Dec 2014 (Local Time) from KPHN Reporting Station
Haze Haze  
Wind Chill: -6°   Ceiling: 2900
Heat Index: -6°   Visibility: 5mi
Dew Point: -6°   Wind: 0mph
Humidity: 100%   Direction: NA
Pressure: 30.32"   Gusts: NA
Location:  43.06°N, 82.69°W
Report Text: KPHN 211157Z AUTO 00000KT 5SM BR BKN029 M06/M06 A3032 RMK AO2
Loading
Personal Weather Stations






























Interactive Weather Map New forecast layout! Learn more

10-Day Weather Forecast

Advertisements
Track Severe Weather on mobile